RJFR/KKJ METAR and TAF weather

Enter ICAO airport designator
Station Type Date Time Source
RJFR METAR 2021/09/28 15:00 UTC NOAA

RJFR 281500Z 11013KT 9999 FEW010 BKN060 BKN090 25/22 Q1011


Station Type Date Time Source
RJFR Decoded METAR 2021/09/28 15:00 UTC NOAA

Kitakyushu Airport, Japan (RJFR) 33-50N 130-57E 6M
Sep 28, 2021 - 11:00 AM EDT / 2021.09.28 1500 UTC
Wind: from the ESE (110 degrees) at 15 MPH (13 KT):0
Visibility: greater than 7 mile(s):0
Sky conditions: mostly cloudy
Temperature: 77 F (25 C)
Dew Point: 71 F (22 C)
Relative Humidity: 83%
Pressure (altimeter): 29.85 in. Hg (1011 hPa)
ob: RJFR 281500Z 11013KT 9999 FEW010 BKN060 BKN090 25/22 Q1011
cycle: 15

Station Type Date Time Source
RJFR TAF 2021/09/28 12:30 UTC NOAA

TAF RJFR 281106Z 2812/2918 11012KT 9999 FEW020 BKN050

Example: see airport list